createdAt,value
2019-06-20T00:00:47.837Z,5.70
2019-06-20T00:03:17.449Z,4.95
2019-06-20T00:05:46.925Z,6.03
2019-06-20T00:08:16.411Z,5.60
2019-06-20T00:10:45.907Z,5.37
2019-06-20T00:13:15.385Z,6.58
2019-06-20T00:15:44.940Z,6.15
2019-06-20T00:18:14.430Z,5.87
2019-06-20T00:20:43.944Z,5.28
2019-06-20T00:23:13.431Z,5.67
2019-06-20T00:25:42.923Z,4.95
2019-06-20T00:28:12.413Z,5.03
2019-06-20T00:30:42.107Z,5.35
2019-06-20T00:33:11.585Z,5.15
2019-06-20T00:35:41.107Z,5.25
2019-06-20T00:38:10.601Z,5.53
2019-06-20T00:40:40.123Z,5.60
2019-06-20T00:43:17.308Z,6.12
2019-06-20T00:45:40.867Z,5.30
2019-06-20T00:48:10.557Z,6.33
2019-06-20T00:50:40.059Z,5.53
2019-06-20T00:53:09.530Z,5.62
2019-06-20T00:55:39.007Z,5.00
2019-06-20T00:58:08.493Z,5.33
2019-06-20T01:00:38.037Z,5.47
2019-06-20T01:03:07.508Z,5.37
2019-06-20T01:05:36.993Z,5.80
2019-06-20T01:08:06.533Z,5.35
2019-06-20T01:10:36.046Z,5.95
2019-06-20T01:13:05.549Z,6.30
2019-06-20T01:15:35.047Z,5.30
2019-06-20T01:18:04.505Z,5.58
2019-06-20T01:20:34.056Z,5.90
2019-06-20T01:23:03.718Z,7.00
2019-06-20T01:25:37.495Z,6.10
2019-06-20T01:28:07.270Z,6.05
2019-06-20T01:30:36.769Z,5.78
2019-06-20T01:33:07.116Z,6.17
2019-06-20T01:35:36.598Z,6.05
2019-06-20T01:38:06.377Z,6.42
2019-06-20T01:40:36.336Z,6.60
2019-06-20T01:43:06.039Z,5.70
2019-06-20T01:45:35.508Z,6.12
2019-06-20T01:48:05.124Z,6.10
2019-06-20T01:50:34.614Z,6.58
2019-06-20T01:53:04.112Z,5.97
2019-06-20T01:55:33.577Z,5.83
2019-06-20T01:58:03.082Z,6.70
2019-06-20T02:00:43.599Z,5.92
2019-06-20T02:03:13.780Z,6.67
2019-06-20T02:05:43.244Z,6.70
2019-06-20T02:08:12.845Z,7.25
2019-06-20T02:10:42.341Z,6.92
2019-06-20T02:13:11.842Z,7.75
2019-06-20T02:15:41.359Z,7.25
2019-06-20T02:18:12.421Z,6.53
2019-06-20T02:20:48.942Z,7.35
2019-06-20T02:23:18.424Z,7.28
2019-06-20T02:25:47.934Z,8.10
2019-06-20T02:28:17.406Z,8.60
2019-06-20T02:30:46.886Z,9.78
2019-06-20T02:33:16.404Z,9.70
2019-06-20T02:35:45.867Z,8.65
2019-06-20T02:38:15.345Z,8.20
2019-06-20T02:40:44.848Z,10.88
2019-06-20T02:43:14.425Z,9.63
2019-06-20T02:45:43.919Z,11.05
2019-06-20T02:48:13.437Z,12.60
2019-06-20T02:50:42.962Z,13.58
2019-06-20T02:53:12.467Z,13.65
2019-06-20T02:55:41.960Z,17.53
2019-06-20T02:58:11.436Z,17.37
2019-06-20T03:00:50.564Z,17.93
2019-06-20T03:03:20.072Z,20.15
2019-06-20T03:05:49.585Z,21.77
2019-06-20T03:08:18.542Z,21.45
2019-06-20T03:10:48.148Z,22.17
2019-06-20T03:13:17.604Z,21.55
2019-06-20T03:15:49.990Z,22.50
2019-06-20T03:18:18.281Z,21.10
2019-06-20T03:20:47.765Z,21.03
2019-06-20T03:23:17.245Z,5.33
2019-06-20T03:25:46.774Z,37.60
2019-06-20T03:28:16.225Z,18.73
2019-06-20T03:30:45.737Z,13.30
2019-06-20T03:33:17.457Z,21.17
2019-06-20T03:35:46.931Z,19.62
2019-06-20T03:38:16.428Z,21.65
2019-06-20T03:40:45.943Z,27.48
2019-06-20T03:43:17.347Z,22.05
2019-06-20T03:45:47.066Z,39.25
2019-06-20T03:48:16.877Z,20.88
2019-06-20T03:50:46.387Z,24.18
2019-06-20T03:53:15.881Z,38.08
2019-06-20T03:55:45.349Z,23.57
2019-06-20T03:58:14.958Z,29.18
2019-06-20T04:00:45.080Z,12.90
2019-06-20T04:03:14.620Z,23.00
2019-06-20T04:05:44.108Z,25.05
2019-06-20T04:08:13.690Z,24.35
2019-06-20T04:10:43.218Z,25.23
2019-06-20T04:13:13.760Z,24.67
2019-06-20T04:15:43.253Z,24.40
2019-06-20T04:18:12.708Z,25.05
2019-06-20T04:20:42.200Z,25.52
2019-06-20T04:23:11.722Z,23.45
2019-06-20T04:25:41.226Z,25.10
2019-06-20T04:28:10.698Z,24.07
2019-06-20T04:30:40.160Z,55.93
2019-06-20T04:33:09.632Z,30.05
2019-06-20T04:35:39.124Z,8.85
2019-06-20T04:38:08.630Z,15.83
2019-06-20T04:40:38.106Z,18.95
2019-06-20T04:43:07.610Z,16.12
2019-06-20T04:45:58.226Z,30.35
2019-06-20T04:48:27.726Z,31.90
2019-06-20T04:50:57.216Z,33.10
2019-06-20T04:53:26.709Z,33.47
2019-06-20T04:55:56.297Z,31.30
2019-06-20T04:58:25.767Z,30.70
2019-06-20T05:00:55.271Z,31.52
2019-06-20T05:03:24.871Z,31.20
2019-06-20T05:05:54.393Z,30.50
2019-06-20T05:08:23.858Z,33.20
2019-06-20T05:10:53.372Z,31.12
2019-06-20T05:13:22.873Z,30.88
2019-06-20T05:15:53.410Z,30.37
2019-06-20T05:18:23.245Z,30.88
2019-06-20T05:20:52.708Z,30.65
2019-06-20T05:23:22.201Z,31.77
2019-06-20T05:25:51.717Z,30.25
2019-06-20T05:28:21.196Z,31.17
2019-06-20T05:30:50.667Z,30.10
2019-06-20T05:33:20.180Z,28.45
2019-06-20T05:35:49.734Z,28.65
2019-06-20T05:38:19.249Z,29.25
2019-06-20T05:40:48.874Z,28.23
2019-06-20T05:43:18.380Z,28.02
2019-06-20T05:45:48.921Z,26.62
2019-06-20T05:48:18.729Z,28.87
2019-06-20T05:50:48.584Z,26.82
2019-06-20T05:53:18.312Z,28.15
2019-06-20T05:55:47.799Z,27.37
2019-06-20T05:58:17.297Z,26.57
2019-06-20T06:00:47.038Z,26.85
2019-06-20T06:03:16.551Z,25.88
2019-06-20T06:05:46.052Z,25.88
2019-06-20T06:08:16.455Z,27.40
2019-06-20T06:10:47.066Z,27.98
2019-06-20T06:13:16.892Z,45.83
2019-06-20T06:15:46.343Z,26.73
2019-06-20T06:18:15.805Z,27.30
2019-06-20T06:20:45.311Z,27.70
2019-06-20T06:23:14.813Z,27.00
2019-06-20T06:25:44.317Z,27.95
2019-06-20T06:28:13.816Z,28.25
2019-06-20T06:30:43.319Z,26.52
2019-06-20T06:33:12.834Z,26.42
2019-06-20T06:35:42.338Z,26.68
2019-06-20T06:38:11.818Z,26.60
2019-06-20T06:40:41.292Z,24.52
2019-06-20T06:43:10.788Z,26.70
2019-06-20T06:45:40.272Z,25.25
2019-06-20T06:48:09.748Z,24.70
2019-06-20T06:50:39.220Z,25.20
2019-06-20T06:53:08.701Z,24.70
2019-06-20T06:55:38.203Z,24.23
2019-06-20T06:58:07.672Z,23.22
2019-06-20T07:00:37.186Z,21.45
2019-06-20T07:03:06.646Z,22.30
2019-06-20T07:05:36.148Z,22.02
2019-06-20T07:08:05.646Z,21.70
2019-06-20T07:10:37.946Z,20.15
2019-06-20T07:13:07.530Z,20.00
2019-06-20T07:15:37.032Z,20.57
2019-06-20T07:18:06.498Z,19.70
2019-06-20T07:20:35.995Z,20.25
2019-06-20T07:23:05.490Z,21.35
2019-06-20T07:25:35.015Z,21.95
2019-06-20T07:28:04.713Z,21.80
2019-06-20T07:30:34.204Z,22.32
2019-06-20T07:33:03.692Z,20.40
2019-06-20T07:35:33.163Z,20.08
2019-06-20T07:38:02.773Z,19.87
2019-06-20T07:40:32.229Z,20.60
2019-06-20T07:43:01.747Z,12.00
2019-06-20T07:45:31.232Z,19.17
2019-06-20T07:48:00.725Z,18.55
2019-06-20T07:50:30.219Z,18.45
2019-06-20T07:53:02.603Z,16.32
2019-06-20T07:55:30.857Z,16.50
2019-06-20T07:58:00.333Z,16.57
2019-06-20T08:00:29.816Z,16.95
2019-06-20T08:02:59.315Z,14.35
2019-06-20T08:05:28.826Z,12.50
2019-06-20T08:07:58.320Z,9.83
2019-06-20T08:10:27.998Z,7.55
2019-06-20T08:12:57.457Z,4.85
2019-06-20T08:15:28.164Z,5.65
2019-06-20T08:17:57.663Z,11.97
2019-06-20T08:20:27.454Z,8.18
2019-06-20T08:22:57.139Z,3.90
2019-06-20T08:25:27.041Z,5.42
2019-06-20T08:27:57.833Z,8.18
2019-06-20T08:30:30.124Z,12.07
2019-06-20T08:33:03.580Z,12.07
2019-06-20T08:35:32.197Z,10.30
2019-06-20T08:38:03.498Z,10.68
2019-06-20T08:40:35.968Z,10.43
2019-06-20T08:43:06.399Z,10.58
2019-06-20T08:45:37.007Z,10.93
2019-06-20T08:48:07.423Z,10.35
2019-06-20T08:50:37.221Z,10.72
2019-06-20T08:53:06.932Z,10.58
2019-06-20T08:55:36.581Z,11.90
2019-06-20T08:58:06.247Z,11.10
2019-06-20T09:00:38.059Z,13.93
2019-06-20T09:03:08.263Z,13.03
2019-06-20T09:05:37.858Z,12.40
2019-06-20T09:08:11.190Z,14.95
2019-06-20T09:10:40.925Z,15.30
2019-06-20T09:13:12.288Z,14.23
2019-06-20T09:15:43.100Z,13.85
2019-06-20T09:18:13.227Z,12.90
2019-06-20T09:20:42.837Z,14.58
2019-06-20T09:23:12.293Z,13.18
2019-06-20T09:25:41.935Z,12.35
2019-06-20T09:28:11.549Z,13.13
2019-06-20T09:30:41.274Z,13.10
2019-06-20T09:33:10.828Z,12.65
2019-06-20T09:35:40.341Z,14.25
2019-06-20T09:38:09.915Z,13.28
2019-06-20T09:40:39.418Z,12.80
2019-06-20T09:43:08.933Z,13.18
2019-06-20T09:45:38.603Z,13.75
2019-06-20T09:48:08.142Z,13.58
2019-06-20T09:50:37.763Z,12.45
2019-06-20T09:53:07.339Z,12.33
2019-06-20T09:55:37.121Z,12.93
2019-06-20T09:58:06.643Z,12.58
2019-06-20T10:00:37.881Z,12.60
2019-06-20T10:03:07.454Z,12.05
2019-06-20T10:05:37.155Z,12.73
2019-06-20T10:08:06.848Z,13.25
2019-06-20T10:10:36.849Z,12.68
2019-06-20T10:13:06.339Z,11.33
2019-06-20T10:15:37.802Z,12.40
2019-06-20T10:18:07.805Z,14.33
2019-06-20T10:20:39.067Z,14.10
2019-06-20T10:23:08.433Z,13.35
2019-06-20T10:25:38.243Z,13.83
2019-06-20T10:28:07.833Z,14.35
2019-06-20T10:30:37.410Z,14.07
2019-06-20T10:33:06.882Z,13.38
2019-06-20T10:35:36.358Z,12.53
2019-06-20T10:38:06.051Z,12.60
2019-06-20T10:40:35.653Z,13.10
2019-06-20T10:43:05.135Z,11.12
2019-06-20T10:45:35.839Z,11.48
2019-06-20T10:48:05.455Z,11.68
2019-06-20T10:50:35.092Z,10.63
2019-06-20T10:53:04.656Z,11.30
2019-06-20T10:55:34.133Z,10.90
2019-06-20T10:58:03.612Z,11.68
2019-06-20T11:00:33.139Z,10.68
2019-06-20T11:03:02.612Z,11.45
2019-06-20T11:05:32.109Z,10.18
2019-06-20T11:08:01.589Z,11.03
2019-06-20T11:10:31.193Z,11.28
2019-06-20T11:13:00.764Z,10.25
2019-06-20T11:15:32.067Z,10.50
2019-06-20T11:18:01.565Z,9.98
2019-06-20T11:20:31.045Z,9.28
2019-06-20T11:23:00.528Z,10.00
2019-06-20T11:25:32.632Z,9.68
2019-06-20T11:28:02.158Z,9.08
2019-06-20T11:30:46.707Z,11.03
2019-06-20T11:33:05.005Z,14.75
2019-06-20T11:35:35.904Z,19.27
2019-06-20T11:38:05.881Z,9.90
2019-06-20T11:40:36.850Z,10.75
2019-06-20T11:43:06.506Z,9.38
2019-06-20T11:45:37.208Z,9.65
2019-06-20T11:48:07.330Z,10.88
2019-06-20T11:50:37.942Z,9.75
2019-06-20T11:53:07.500Z,10.50
2019-06-20T11:55:36.978Z,11.40
2019-06-20T11:58:06.447Z,10.20
2019-06-20T12:00:35.987Z,12.88
2019-06-20T12:03:05.575Z,11.00
2019-06-20T12:05:35.050Z,10.85
2019-06-20T12:08:04.524Z,9.88
2019-06-20T12:10:33.998Z,9.33
2019-06-20T12:13:03.498Z,9.25
2019-06-20T12:15:32.977Z,9.05
2019-06-20T12:18:02.613Z,8.73
2019-06-20T12:20:32.071Z,7.90
2019-06-20T12:23:01.574Z,7.70
2019-06-20T12:25:31.162Z,8.75
2019-06-20T12:28:00.596Z,8.35
2019-06-20T12:30:30.286Z,6.62
2019-06-20T12:32:59.765Z,6.08
2019-06-20T12:35:29.264Z,5.90
2019-06-20T12:37:58.729Z,7.40
2019-06-20T12:40:28.202Z,7.28
2019-06-20T12:42:57.706Z,7.00
2019-06-20T12:45:38.196Z,6.70
2019-06-20T12:48:09.163Z,6.22
2019-06-20T12:50:39.737Z,5.62
2019-06-20T12:53:09.733Z,9.43
2019-06-20T12:55:40.363Z,10.45
2019-06-20T12:58:10.696Z,10.20
2019-06-20T13:00:41.648Z,9.83
2019-06-20T13:03:11.759Z,9.53
2019-06-20T13:05:41.843Z,10.15
2019-06-20T13:08:13.678Z,10.20
2019-06-20T13:10:44.182Z,8.60
2019-06-20T13:13:13.983Z,8.38
2019-06-20T13:15:44.548Z,7.30
2019-06-20T13:18:14.714Z,8.53
2019-06-20T13:20:44.332Z,7.87
2019-06-20T13:23:13.901Z,6.78
2019-06-20T13:25:44.600Z,6.00
2019-06-20T13:28:14.101Z,6.60
2019-06-20T13:30:47.224Z,7.35
2019-06-20T13:33:14.725Z,7.97
2019-06-20T13:35:45.344Z,7.22
2019-06-20T13:38:14.983Z,7.80
2019-06-20T13:40:45.369Z,7.78
2019-06-20T13:43:15.100Z,7.22
2019-06-20T13:45:44.850Z,7.47
2019-06-20T13:48:14.543Z,7.10
2019-06-20T13:50:45.347Z,6.83
2019-06-20T13:53:15.071Z,7.87
2019-06-20T13:55:45.816Z,7.70
2019-06-20T13:58:15.367Z,6.30
2019-06-20T14:00:45.497Z,5.70
2019-06-20T14:03:15.447Z,6.03
2019-06-20T14:05:45.434Z,5.45
2019-06-20T14:08:15.129Z,5.00
2019-06-20T14:10:46.003Z,4.97
2019-06-20T14:13:19.477Z,4.90
2019-06-20T14:15:46.926Z,4.55
2019-06-20T14:18:16.400Z,5.75
2019-06-20T14:20:46.726Z,5.37
2019-06-20T14:23:16.497Z,5.17
2019-06-20T14:25:46.308Z,5.65
2019-06-20T14:28:16.029Z,5.20
2019-06-20T14:30:46.574Z,5.42
2019-06-20T14:33:16.458Z,5.40
2019-06-20T14:35:47.389Z,5.45
2019-06-20T14:38:17.066Z,5.67
2019-06-20T14:40:48.217Z,5.47
2019-06-20T14:43:17.748Z,5.08
2019-06-20T14:45:48.607Z,5.22
2019-06-20T14:48:18.200Z,4.70
2019-06-20T14:50:48.300Z,4.50
2019-06-20T14:53:18.785Z,4.55
2019-06-20T14:55:49.621Z,4.35
2019-06-20T14:58:19.258Z,5.05
2019-06-20T15:00:49.890Z,4.33
2019-06-20T15:03:19.534Z,5.35
2019-06-20T15:05:50.098Z,4.95
2019-06-20T15:08:19.903Z,4.72
2019-06-20T15:10:50.261Z,5.25
2019-06-20T15:13:19.865Z,4.95
2019-06-20T15:15:49.608Z,4.80
2019-06-20T15:18:19.242Z,5.33
2019-06-20T15:20:50.171Z,5.12
2019-06-20T15:23:20.014Z,5.67
2019-06-20T15:25:50.409Z,4.92
2019-06-20T15:28:20.271Z,4.28
2019-06-20T15:30:50.878Z,4.58
2019-06-20T15:33:20.810Z,4.70
2019-06-20T15:35:51.338Z,4.65
2019-06-20T15:38:21.670Z,4.67
2019-06-20T15:40:51.560Z,4.65
2019-06-20T15:43:21.189Z,5.22
2019-06-20T15:45:51.991Z,4.55
2019-06-20T15:48:21.593Z,5.05
2019-06-20T15:50:51.075Z,4.90
2019-06-20T15:53:20.577Z,5.00
2019-06-20T15:55:50.079Z,5.28
2019-06-20T15:58:19.635Z,5.37
2019-06-20T16:00:49.089Z,5.75
2019-06-20T16:03:18.582Z,5.37
2019-06-20T16:05:48.059Z,5.28
2019-06-20T16:08:17.567Z,5.83
2019-06-20T16:10:47.089Z,5.70
2019-06-20T16:13:16.541Z,5.37
2019-06-20T16:15:46.044Z,6.40
2019-06-20T16:18:16.141Z,6.62
2019-06-20T16:20:45.675Z,6.45
2019-06-20T16:23:15.191Z,6.17
2019-06-20T16:25:44.693Z,6.20
2019-06-20T16:28:14.172Z,5.95
2019-06-20T16:30:43.650Z,6.83
2019-06-20T16:33:24.645Z,6.03
2019-06-20T16:35:44.249Z,6.00
2019-06-20T16:38:13.714Z,5.85
2019-06-20T16:40:47.361Z,6.25
2019-06-20T16:43:16.950Z,6.05
2019-06-20T16:45:46.385Z,6.72
2019-06-20T16:48:16.548Z,6.00
2019-06-20T16:50:46.036Z,5.83
2019-06-20T16:53:15.495Z,6.37
2019-06-20T16:55:45.001Z,5.80
2019-06-20T16:58:14.602Z,5.42
2019-06-20T17:00:44.083Z,5.50
2019-06-20T17:03:13.644Z,5.15
2019-06-20T17:05:43.356Z,4.75
2019-06-20T17:08:12.819Z,5.42
2019-06-20T17:10:42.342Z,5.08
2019-06-20T17:13:11.821Z,5.33
2019-06-20T17:15:41.299Z,5.03
2019-06-20T17:18:10.825Z,5.33
2019-06-20T17:20:40.427Z,5.00
2019-06-20T17:23:09.998Z,4.87
2019-06-20T17:25:39.504Z,5.08
2019-06-20T17:28:08.985Z,5.00
2019-06-20T17:30:38.765Z,4.20
2019-06-20T17:33:08.245Z,3.72
2019-06-20T17:35:37.734Z,4.50
2019-06-20T17:38:07.210Z,4.40
2019-06-20T17:40:36.798Z,4.08
2019-06-20T17:43:06.262Z,4.67
2019-06-20T17:45:35.752Z,4.72
2019-06-20T17:48:05.250Z,4.47
2019-06-20T17:50:34.720Z,4.20
2019-06-20T17:53:04.187Z,6.95
2019-06-20T17:55:33.676Z,4.62
2019-06-20T17:58:03.142Z,4.17
2019-06-20T18:00:33.232Z,4.80
2019-06-20T18:03:02.757Z,5.15
2019-06-20T18:05:32.217Z,5.90
2019-06-20T18:08:14.135Z,5.75
2019-06-20T18:10:32.891Z,5.85
2019-06-20T18:13:02.383Z,5.53
2019-06-20T18:15:33.951Z,7.40
2019-06-20T18:18:03.026Z,5.00
2019-06-20T18:20:32.505Z,5.10
2019-06-20T18:23:02.030Z,5.65
2019-06-20T18:25:32.880Z,5.17
2019-06-20T18:28:02.716Z,5.67
2019-06-20T18:30:44.399Z,5.65
2019-06-20T18:33:14.824Z,5.70
2019-06-20T18:35:44.446Z,6.17
2019-06-20T18:38:15.835Z,6.05
2019-06-20T18:40:46.028Z,5.70
2019-06-20T18:43:15.755Z,6.05
2019-06-20T18:45:46.073Z,6.33
2019-06-20T18:48:16.604Z,5.78
2019-06-20T18:50:46.217Z,5.92
2019-06-20T18:53:15.690Z,6.17
2019-06-20T18:55:46.868Z,6.12
2019-06-20T18:58:16.367Z,6.53
2019-06-20T19:00:45.904Z,6.95
2019-06-20T19:03:15.462Z,5.80
2019-06-20T19:05:45.267Z,6.50
2019-06-20T19:08:14.959Z,7.12
2019-06-20T19:10:44.453Z,6.17
2019-06-20T19:13:13.980Z,7.15
2019-06-20T19:15:45.162Z,6.55
2019-06-20T19:18:15.321Z,7.78
2019-06-20T19:20:45.948Z,7.80
2019-06-20T19:23:15.468Z,7.90
2019-06-20T19:25:44.933Z,8.08
2019-06-20T19:28:16.504Z,7.12
2019-06-20T19:30:51.111Z,7.80
2019-06-20T19:33:20.622Z,7.50
2019-06-20T19:35:50.053Z,8.83
2019-06-20T19:38:20.139Z,8.53
2019-06-20T19:40:50.637Z,8.43
2019-06-20T19:43:20.179Z,7.80
2019-06-20T19:45:49.680Z,8.70
2019-06-20T19:48:20.624Z,8.50
2019-06-20T19:50:51.103Z,8.10
2019-06-20T19:53:20.667Z,8.70
2019-06-20T19:55:52.028Z,8.80
2019-06-20T19:58:23.631Z,7.45
2019-06-20T20:00:53.101Z,7.62
2019-06-20T20:03:23.031Z,7.20
2019-06-20T20:05:53.653Z,6.45
2019-06-20T20:08:23.260Z,6.20
2019-06-20T20:10:52.899Z,5.97
2019-06-20T20:13:22.548Z,4.58
2019-06-20T20:15:52.092Z,4.80
2019-06-20T20:18:21.736Z,5.05
2019-06-20T20:20:50.648Z,4.95
2019-06-20T20:23:20.178Z,5.10
2019-06-20T20:25:50.332Z,4.92
2019-06-20T20:28:19.794Z,4.40
2019-06-20T20:30:49.305Z,4.55
2019-06-20T20:33:20.429Z,5.30
2019-06-20T20:35:50.111Z,4.85
2019-06-20T20:38:19.613Z,4.45
2019-06-20T20:40:49.133Z,3.92
2019-06-20T20:43:18.686Z,4.00
2019-06-20T20:45:48.319Z,4.05
2019-06-20T20:48:20.341Z,3.77
2019-06-20T20:50:50.752Z,4.45
2019-06-20T20:53:20.690Z,4.40
2019-06-20T20:55:52.659Z,4.58
2019-06-20T20:58:22.154Z,4.65
2019-06-20T21:01:17.442Z,4.08
2019-06-20T21:03:46.929Z,4.70
2019-06-20T21:06:16.446Z,4.08
2019-06-20T21:08:45.927Z,3.92
2019-06-20T21:11:17.005Z,4.25
2019-06-20T21:13:46.554Z,4.15
2019-06-20T21:16:17.604Z,3.92
2019-06-20T21:18:48.508Z,3.90
2019-06-20T21:21:17.994Z,3.90
2019-06-20T21:23:47.539Z,3.45
2019-06-20T21:26:17.047Z,4.20
2019-06-20T21:28:46.489Z,4.37
2019-06-20T21:31:16.556Z,4.05
2019-06-20T21:33:46.077Z,4.30
2019-06-20T21:36:15.591Z,4.03
2019-06-20T21:38:45.085Z,4.37
2019-06-20T21:41:14.580Z,3.62
2019-06-20T21:43:44.811Z,4.45
2019-06-20T21:46:14.557Z,4.40
2019-06-20T21:48:43.992Z,4.00
2019-06-20T21:51:13.563Z,4.85
2019-06-20T21:53:43.077Z,4.75
2019-06-20T21:56:15.387Z,4.55
2019-06-20T21:58:44.871Z,4.58
2019-06-20T22:01:15.207Z,5.87
2019-06-20T22:03:44.711Z,6.37
2019-06-20T22:06:23.180Z,5.42
2019-06-20T22:08:45.401Z,6.80
2019-06-20T22:11:16.398Z,5.92
2019-06-20T22:13:46.962Z,5.85
2019-06-20T22:16:16.509Z,5.42
2019-06-20T22:18:47.631Z,5.87
2019-06-20T22:21:17.497Z,6.65
2019-06-20T22:23:47.038Z,7.20
2019-06-20T22:26:16.672Z,7.30
2019-06-20T22:28:46.263Z,8.53
2019-06-20T22:31:15.744Z,8.05
2019-06-20T22:33:45.247Z,8.35
2019-06-20T22:36:16.424Z,7.78
2019-06-20T22:38:47.596Z,8.33
2019-06-20T22:41:17.113Z,8.15
2019-06-20T22:43:46.608Z,8.50
2019-06-20T22:46:16.145Z,7.72
2019-06-20T22:48:45.618Z,8.50
2019-06-20T22:51:15.223Z,9.15
2019-06-20T22:53:44.693Z,8.28
2019-06-20T22:56:14.162Z,8.00
2019-06-20T22:58:43.661Z,8.88
2019-06-20T23:01:13.166Z,8.30
2019-06-20T23:03:42.661Z,7.78
2019-06-20T23:06:12.135Z,7.60
2019-06-20T23:08:41.617Z,7.17
2019-06-20T23:11:11.180Z,7.40
2019-06-20T23:13:40.712Z,7.20
2019-06-20T23:16:10.154Z,7.58
2019-06-20T23:18:39.766Z,7.17
2019-06-20T23:21:09.236Z,7.65
2019-06-20T23:23:38.852Z,7.62
2019-06-20T23:26:10.009Z,7.67
2019-06-20T23:28:39.565Z,8.63
2019-06-20T23:31:09.077Z,8.68
2019-06-20T23:33:38.558Z,8.25
2019-06-20T23:36:08.066Z,9.13
2019-06-20T23:38:37.590Z,9.55
2019-06-20T23:41:07.093Z,9.68
2019-06-20T23:43:36.549Z,9.70
2019-06-20T23:46:06.166Z,9.80
2019-06-20T23:48:35.662Z,9.45
2019-06-20T23:51:05.143Z,8.75
2019-06-20T23:53:34.641Z,8.60
2019-06-20T23:56:07.857Z,8.87
2019-06-20T23:58:35.458Z,7.25
